sensor_id;sensor_type;location;lat;lon;timestamp;temperature;humidity
11991;DHT22;6055;52.522;13.446;2023-05-06T00:00:33;13.20;99.90
11991;DHT22;6055;52.522;13.446;2023-05-06T00:02:58;13.10;99.90
11991;DHT22;6055;52.522;13.446;2023-05-06T00:05:27;13.00;99.90
11991;DHT22;6055;52.522;13.446;2023-05-06T00:07:52;13.10;99.90
11991;DHT22;6055;52.522;13.446;2023-05-06T00:10:18;12.90;99.90
11991;DHT22;6055;52.522;13.446;2023-05-06T00:12:44;12.90;99.90
11991;DHT22;6055;52.522;13.446;2023-05-06T00:15:10;12.80;99.90
11991;DHT22;6055;52.522;13.446;2023-05-06T00:17:37;12.80;99.90
11991;DHT22;6055;52.522;13.446;2023-05-06T00:20:03;12.70;99.90
11991;DHT22;6055;52.522;13.446;2023-05-06T00:22:29;12.60;99.90
11991;DHT22;6055;52.522;13.446;2023-05-06T00:24:54;12.60;99.90
11991;DHT22;6055;52.522;13.446;2023-05-06T00:27:20;12.50;99.90
11991;DHT22;6055;52.522;13.446;2023-05-06T00:29:45;12.50;99.90
11991;DHT22;6055;52.522;13.446;2023-05-06T00:32:11;12.40;99.90
11991;DHT22;6055;52.522;13.446;2023-05-06T00:34:36;12.40;99.90
11991;DHT22;6055;52.522;13.446;2023-05-06T00:37:02;12.40;99.90
11991;DHT22;6055;52.522;13.446;2023-05-06T00:39:28;12.30;99.90
11991;DHT22;6055;52.522;13.446;2023-05-06T00:41:58;12.30;99.90
11991;DHT22;6055;52.522;13.446;2023-05-06T00:44:24;12.30;99.90
11991;DHT22;6055;52.522;13.446;2023-05-06T00:46:49;12.20;99.90
11991;DHT22;6055;52.522;13.446;2023-05-06T00:49:15;12.30;99.90
11991;DHT22;6055;52.522;13.446;2023-05-06T00:51:40;12.30;99.90
11991;DHT22;6055;52.522;13.446;2023-05-06T00:54:06;12.20;99.90
11991;DHT22;6055;52.522;13.446;2023-05-06T00:56:31;12.30;99.90
11991;DHT22;6055;52.522;13.446;2023-05-06T00:58:57;12.20;99.90
11991;DHT22;6055;52.522;13.446;2023-05-06T01:01:22;12.20;99.90
11991;DHT22;6055;52.522;13.446;2023-05-06T01:03:48;12.20;99.90
11991;DHT22;6055;52.522;13.446;2023-05-06T01:09:09;12.20;99.90
11991;DHT22;6055;52.522;13.446;2023-05-06T01:14:35;12.10;99.90
11991;DHT22;6055;52.522;13.446;2023-05-06T01:17:07;12.00;99.90
11991;DHT22;6055;52.522;13.446;2023-05-06T01:19:46;12.00;99.90
11991;DHT22;6055;52.522;13.446;2023-05-06T01:22:14;12.00;99.90
11991;DHT22;6055;52.522;13.446;2023-05-06T01:24:42;12.00;99.90
11991;DHT22;6055;52.522;13.446;2023-05-06T01:27:09;11.90;99.90
11991;DHT22;6055;52.522;13.446;2023-05-06T01:29:36;11.90;99.90
11991;DHT22;6055;52.522;13.446;2023-05-06T01:32:15;11.90;99.90
11991;DHT22;6055;52.522;13.446;2023-05-06T01:34:48;11.80;99.90
11991;DHT22;6055;52.522;13.446;2023-05-06T01:37:33;11.80;99.90
11991;DHT22;6055;52.522;13.446;2023-05-06T01:40:02;11.70;99.90
11991;DHT22;6055;52.522;13.446;2023-05-06T01:42:29;11.70;99.90
11991;DHT22;6055;52.522;13.446;2023-05-06T01:44:55;11.60;99.90
11991;DHT22;6055;52.522;13.446;2023-05-06T01:47:22;11.60;99.90
11991;DHT22;6055;52.522;13.446;2023-05-06T01:49:48;11.60;99.90
11991;DHT22;6055;52.522;13.446;2023-05-06T01:52:17;11.50;99.90
11991;DHT22;6055;52.522;13.446;2023-05-06T01:54:42;11.50;99.90
11991;DHT22;6055;52.522;13.446;2023-05-06T01:57:08;11.40;99.90
11991;DHT22;6055;52.522;13.446;2023-05-06T01:59:33;11.40;99.90
11991;DHT22;6055;52.522;13.446;2023-05-06T02:01:59;11.40;99.90
11991;DHT22;6055;52.522;13.446;2023-05-06T02:04:25;11.40;99.90
11991;DHT22;6055;52.522;13.446;2023-05-06T02:06:50;11.30;99.90
11991;DHT22;6055;52.522;13.446;2023-05-06T02:09:15;11.30;99.90
11991;DHT22;6055;52.522;13.446;2023-05-06T02:11:41;11.20;99.90
11991;DHT22;6055;52.522;13.446;2023-05-06T02:14:06;11.20;99.90
11991;DHT22;6055;52.522;13.446;2023-05-06T02:16:32;11.10;99.90
11991;DHT22;6055;52.522;13.446;2023-05-06T02:18:57;11.00;99.90
11991;DHT22;6055;52.522;13.446;2023-05-06T02:21:23;11.00;99.90
11991;DHT22;6055;52.522;13.446;2023-05-06T02:23:48;11.10;99.90
11991;DHT22;6055;52.522;13.446;2023-05-06T02:26:14;11.10;99.90
11991;DHT22;6055;52.522;13.446;2023-05-06T02:28:40;11.10;99.90
11991;DHT22;6055;52.522;13.446;2023-05-06T02:31:06;11.00;99.90
11991;DHT22;6055;52.522;13.446;2023-05-06T02:33:34;11.00;99.90
11991;DHT22;6055;52.522;13.446;2023-05-06T02:36:00;11.00;99.90
11991;DHT22;6055;52.522;13.446;2023-05-06T02:38:25;10.90;99.90
11991;DHT22;6055;52.522;13.446;2023-05-06T02:40:51;10.90;99.90
11991;DHT22;6055;52.522;13.446;2023-05-06T02:43:16;10.90;99.90
11991;DHT22;6055;52.522;13.446;2023-05-06T02:45:41;10.90;99.90
11991;DHT22;6055;52.522;13.446;2023-05-06T02:48:07;10.90;99.90
11991;DHT22;6055;52.522;13.446;2023-05-06T02:50:34;10.90;99.90
11991;DHT22;6055;52.522;13.446;2023-05-06T02:52:59;10.90;99.90
11991;DHT22;6055;52.522;13.446;2023-05-06T02:55:25;10.80;99.90
11991;DHT22;6055;52.522;13.446;2023-05-06T02:57:50;10.80;99.90
11991;DHT22;6055;52.522;13.446;2023-05-06T03:00:16;10.70;99.90
11991;DHT22;6055;52.522;13.446;2023-05-06T03:02:42;10.70;99.90
11991;DHT22;6055;52.522;13.446;2023-05-06T03:05:07;10.70;99.90
11991;DHT22;6055;52.522;13.446;2023-05-06T03:07:35;10.60;99.90
11991;DHT22;6055;52.522;13.446;2023-05-06T03:10:00;10.60;99.90
11991;DHT22;6055;52.522;13.446;2023-05-06T03:12:26;10.60;99.90
11991;DHT22;6055;52.522;13.446;2023-05-06T03:14:51;10.60;99.90
11991;DHT22;6055;52.522;13.446;2023-05-06T03:17:17;10.50;99.90
11991;DHT22;6055;52.522;13.446;2023-05-06T03:19:42;10.50;99.90
11991;DHT22;6055;52.522;13.446;2023-05-06T03:22:08;10.40;99.90
11991;DHT22;6055;52.522;13.446;2023-05-06T03:24:34;10.50;99.90
11991;DHT22;6055;52.522;13.446;2023-05-06T03:26:59;10.40;99.90
11991;DHT22;6055;52.522;13.446;2023-05-06T03:29:25;10.30;99.90
11991;DHT22;6055;52.522;13.446;2023-05-06T03:31:51;10.30;99.90
11991;DHT22;6055;52.522;13.446;2023-05-06T03:34:19;10.30;99.90
11991;DHT22;6055;52.522;13.446;2023-05-06T03:36:45;10.30;99.90
11991;DHT22;6055;52.522;13.446;2023-05-06T03:39:10;10.30;99.90
11991;DHT22;6055;52.522;13.446;2023-05-06T03:41:38;10.30;99.90
11991;DHT22;6055;52.522;13.446;2023-05-06T03:44:03;10.30;99.90
11991;DHT22;6055;52.522;13.446;2023-05-06T03:46:29;10.40;99.90
11991;DHT22;6055;52.522;13.446;2023-05-06T03:48:54;10.40;99.90
11991;DHT22;6055;52.522;13.446;2023-05-06T03:51:20;10.40;99.90
11991;DHT22;6055;52.522;13.446;2023-05-06T03:53:46;10.50;99.90
11991;DHT22;6055;52.522;13.446;2023-05-06T03:56:12;10.40;99.90
11991;DHT22;6055;52.522;13.446;2023-05-06T03:58:37;10.30;99.90
11991;DHT22;6055;52.522;13.446;2023-05-06T04:01:03;10.30;99.90
11991;DHT22;6055;52.522;13.446;2023-05-06T04:03:28;10.30;99.90
11991;DHT22;6055;52.522;13.446;2023-05-06T04:05:54;10.30;99.90
11991;DHT22;6055;52.522;13.446;2023-05-06T04:08:19;10.40;99.90
11991;DHT22;6055;52.522;13.446;2023-05-06T04:10:45;10.40;99.90
11991;DHT22;6055;52.522;13.446;2023-05-06T04:13:10;10.30;99.90
11991;DHT22;6055;52.522;13.446;2023-05-06T04:15:36;10.20;99.90
11991;DHT22;6055;52.522;13.446;2023-05-06T04:18:03;10.30;99.90
11991;DHT22;6055;52.522;13.446;2023-05-06T04:20:29;10.40;99.90
11991;DHT22;6055;52.522;13.446;2023-05-06T04:22:57;10.30;99.90
11991;DHT22;6055;52.522;13.446;2023-05-06T04:25:23;10.30;99.90
11991;DHT22;6055;52.522;13.446;2023-05-06T04:27:48;10.40;99.90
11991;DHT22;6055;52.522;13.446;2023-05-06T04:30:14;10.30;99.90
11991;DHT22;6055;52.522;13.446;2023-05-06T04:32:39;10.30;99.90
11991;DHT22;6055;52.522;13.446;2023-05-06T04:35:05;10.40;99.90
11991;DHT22;6055;52.522;13.446;2023-05-06T04:37:31;10.40;99.90
11991;DHT22;6055;52.522;13.446;2023-05-06T04:39:57;10.40;99.90
11991;DHT22;6055;52.522;13.446;2023-05-06T04:42:23;10.40;99.90
11991;DHT22;6055;52.522;13.446;2023-05-06T04:44:48;10.40;99.90
11991;DHT22;6055;52.522;13.446;2023-05-06T04:47:14;10.40;99.90
11991;DHT22;6055;52.522;13.446;2023-05-06T04:49:40;10.40;99.90
11991;DHT22;6055;52.522;13.446;2023-05-06T04:52:06;10.40;99.90
11991;DHT22;6055;52.522;13.446;2023-05-06T04:54:32;10.40;99.90
11991;DHT22;6055;52.522;13.446;2023-05-06T04:56:57;10.40;99.90
11991;DHT22;6055;52.522;13.446;2023-05-06T04:59:23;10.40;99.90
11991;DHT22;6055;52.522;13.446;2023-05-06T05:01:48;10.40;99.90
11991;DHT22;6055;52.522;13.446;2023-05-06T05:04:13;10.40;99.90
11991;DHT22;6055;52.522;13.446;2023-05-06T05:06:39;10.40;99.90
11991;DHT22;6055;52.522;13.446;2023-05-06T05:09:04;10.40;99.90
11991;DHT22;6055;52.522;13.446;2023-05-06T05:11:30;10.40;99.90
11991;DHT22;6055;52.522;13.446;2023-05-06T05:13:56;10.40;99.90
11991;DHT22;6055;52.522;13.446;2023-05-06T05:16:21;10.50;99.90
11991;DHT22;6055;52.522;13.446;2023-05-06T05:18:47;10.50;99.90
11991;DHT22;6055;52.522;13.446;2023-05-06T05:21:12;10.50;99.90
11991;DHT22;6055;52.522;13.446;2023-05-06T05:23:38;10.50;99.90
11991;DHT22;6055;52.522;13.446;2023-05-06T05:26:03;10.40;99.90
11991;DHT22;6055;52.522;13.446;2023-05-06T05:28:29;10.40;99.90
11991;DHT22;6055;52.522;13.446;2023-05-06T05:31:03;10.40;99.90
11991;DHT22;6055;52.522;13.446;2023-05-06T05:33:29;10.40;99.90
11991;DHT22;6055;52.522;13.446;2023-05-06T05:35:54;10.40;99.90
11991;DHT22;6055;52.522;13.446;2023-05-06T05:38:22;10.50;99.90
11991;DHT22;6055;52.522;13.446;2023-05-06T05:40:48;10.60;99.90
11991;DHT22;6055;52.522;13.446;2023-05-06T05:43:14;10.60;99.90
11991;DHT22;6055;52.522;13.446;2023-05-06T05:45:39;10.60;99.90
11991;DHT22;6055;52.522;13.446;2023-05-06T05:48:05;10.60;99.90
11991;DHT22;6055;52.522;13.446;2023-05-06T05:50:30;10.50;99.90
11991;DHT22;6055;52.522;13.446;2023-05-06T05:52:56;10.50;99.90
11991;DHT22;6055;52.522;13.446;2023-05-06T05:55:21;10.50;99.90
11991;DHT22;6055;52.522;13.446;2023-05-06T05:57:47;10.50;99.90
11991;DHT22;6055;52.522;13.446;2023-05-06T06:00:12;10.50;99.90
11991;DHT22;6055;52.522;13.446;2023-05-06T06:02:38;10.60;99.90
11991;DHT22;6055;52.522;13.446;2023-05-06T06:05:04;10.60;99.90
11991;DHT22;6055;52.522;13.446;2023-05-06T06:07:29;10.60;99.90
11991;DHT22;6055;52.522;13.446;2023-05-06T06:09:55;10.60;99.90
11991;DHT22;6055;52.522;13.446;2023-05-06T06:12:21;10.60;99.90
11991;DHT22;6055;52.522;13.446;2023-05-06T06:14:47;10.60;99.90
11991;DHT22;6055;52.522;13.446;2023-05-06T06:17:15;10.60;99.90
11991;DHT22;6055;52.522;13.446;2023-05-06T06:19:41;10.60;99.90
11991;DHT22;6055;52.522;13.446;2023-05-06T06:22:07;10.60;99.90
11991;DHT22;6055;52.522;13.446;2023-05-06T06:24:32;10.60;99.90
11991;DHT22;6055;52.522;13.446;2023-05-06T06:27:02;10.50;99.90
11991;DHT22;6055;52.522;13.446;2023-05-06T06:29:27;10.40;99.90
11991;DHT22;6055;52.522;13.446;2023-05-06T06:31:53;10.40;99.90
11991;DHT22;6055;52.522;13.446;2023-05-06T06:34:22;10.40;99.90
11991;DHT22;6055;52.522;13.446;2023-05-06T06:36:48;10.40;99.90
11991;DHT22;6055;52.522;13.446;2023-05-06T06:39:13;10.40;99.90
11991;DHT22;6055;52.522;13.446;2023-05-06T06:41:39;10.40;99.90
11991;DHT22;6055;52.522;13.446;2023-05-06T06:44:04;10.40;99.90
11991;DHT22;6055;52.522;13.446;2023-05-06T06:46:30;10.40;99.90
11991;DHT22;6055;52.522;13.446;2023-05-06T06:48:55;10.40;99.90
11991;DHT22;6055;52.522;13.446;2023-05-06T06:51:21;10.30;99.90
11991;DHT22;6055;52.522;13.446;2023-05-06T06:53:46;10.30;99.90
11991;DHT22;6055;52.522;13.446;2023-05-06T06:56:13;10.20;99.90
11991;DHT22;6055;52.522;13.446;2023-05-06T06:58:40;10.30;99.90
11991;DHT22;6055;52.522;13.446;2023-05-06T07:01:06;10.30;99.90
11991;DHT22;6055;52.522;13.446;2023-05-06T07:03:31;10.30;99.90
11991;DHT22;6055;52.522;13.446;2023-05-06T07:05:57;10.30;99.90
11991;DHT22;6055;52.522;13.446;2023-05-06T07:08:22;10.40;99.90
11991;DHT22;6055;52.522;13.446;2023-05-06T07:10:48;10.30;99.90
11991;DHT22;6055;52.522;13.446;2023-05-06T07:13:13;10.30;99.90
11991;DHT22;6055;52.522;13.446;2023-05-06T07:15:39;10.40;99.90
11991;DHT22;6055;52.522;13.446;2023-05-06T07:18:05;10.40;99.90
11991;DHT22;6055;52.522;13.446;2023-05-06T07:20:30;10.30;99.90
11991;DHT22;6055;52.522;13.446;2023-05-06T07:22:56;10.50;99.90
11991;DHT22;6055;52.522;13.446;2023-05-06T07:25:21;10.50;99.90
11991;DHT22;6055;52.522;13.446;2023-05-06T07:27:46;10.60;99.90
11991;DHT22;6055;52.522;13.446;2023-05-06T07:30:15;10.60;99.90
11991;DHT22;6055;52.522;13.446;2023-05-06T07:32:40;10.60;99.90
11991;DHT22;6055;52.522;13.446;2023-05-06T07:35:08;10.60;99.90
11991;DHT22;6055;52.522;13.446;2023-05-06T07:37:34;10.60;99.90
11991;DHT22;6055;52.522;13.446;2023-05-06T07:39:59;10.60;99.90
11991;DHT22;6055;52.522;13.446;2023-05-06T07:42:25;10.50;99.90
11991;DHT22;6055;52.522;13.446;2023-05-06T07:44:50;10.60;99.90
11991;DHT22;6055;52.522;13.446;2023-05-06T07:47:29;10.60;99.90
11991;DHT22;6055;52.522;13.446;2023-05-06T07:49:55;10.60;99.90
11991;DHT22;6055;52.522;13.446;2023-05-06T07:52:21;10.50;99.90
11991;DHT22;6055;52.522;13.446;2023-05-06T07:54:47;10.50;99.90
11991;DHT22;6055;52.522;13.446;2023-05-06T07:57:13;10.50;99.90
11991;DHT22;6055;52.522;13.446;2023-05-06T07:59:38;10.50;99.90
11991;DHT22;6055;52.522;13.446;2023-05-06T08:02:04;10.60;99.90
11991;DHT22;6055;52.522;13.446;2023-05-06T08:04:29;10.50;99.90
11991;DHT22;6055;52.522;13.446;2023-05-06T08:06:55;10.60;99.90
11991;DHT22;6055;52.522;13.446;2023-05-06T08:09:21;10.60;99.90
11991;DHT22;6055;52.522;13.446;2023-05-06T08:11:49;10.60;99.90
11991;DHT22;6055;52.522;13.446;2023-05-06T08:14:14;10.60;99.90
11991;DHT22;6055;52.522;13.446;2023-05-06T08:16:40;10.60;99.90
11991;DHT22;6055;52.522;13.446;2023-05-06T08:19:06;10.60;99.90
11991;DHT22;6055;52.522;13.446;2023-05-06T08:21:31;10.60;99.90
11991;DHT22;6055;52.522;13.446;2023-05-06T08:23:59;10.70;99.90
11991;DHT22;6055;52.522;13.446;2023-05-06T08:26:24;10.60;99.90
11991;DHT22;6055;52.522;13.446;2023-05-06T08:28:50;10.60;99.90
11991;DHT22;6055;52.522;13.446;2023-05-06T08:31:15;10.70;99.90
11991;DHT22;6055;52.522;13.446;2023-05-06T08:33:41;10.70;99.90
11991;DHT22;6055;52.522;13.446;2023-05-06T08:36:06;10.70;99.90
11991;DHT22;6055;52.522;13.446;2023-05-06T08:38:32;10.80;99.90
11991;DHT22;6055;52.522;13.446;2023-05-06T08:40:59;10.80;99.90
11991;DHT22;6055;52.522;13.446;2023-05-06T08:43:27;10.80;99.90
11991;DHT22;6055;52.522;13.446;2023-05-06T08:45:56;10.80;99.90
11991;DHT22;6055;52.522;13.446;2023-05-06T08:48:21;10.80;99.90
11991;DHT22;6055;52.522;13.446;2023-05-06T08:50:48;10.80;99.90
11991;DHT22;6055;52.522;13.446;2023-05-06T08:53:13;10.70;99.90
11991;DHT22;6055;52.522;13.446;2023-05-06T08:55:41;10.70;99.90
11991;DHT22;6055;52.522;13.446;2023-05-06T08:58:08;10.70;99.90
11991;DHT22;6055;52.522;13.446;2023-05-06T09:00:35;10.70;99.90
11991;DHT22;6055;52.522;13.446;2023-05-06T09:03:01;10.80;99.90
11991;DHT22;6055;52.522;13.446;2023-05-06T09:05:26;10.70;99.90
11991;DHT22;6055;52.522;13.446;2023-05-06T09:07:53;10.70;99.90
11991;DHT22;6055;52.522;13.446;2023-05-06T09:10:18;10.80;99.90
11991;DHT22;6055;52.522;13.446;2023-05-06T09:12:44;10.90;99.90
11991;DHT22;6055;52.522;13.446;2023-05-06T09:15:10;10.80;99.90
11991;DHT22;6055;52.522;13.446;2023-05-06T09:17:38;10.80;99.90
11991;DHT22;6055;52.522;13.446;2023-05-06T09:20:04;10.80;99.90
11991;DHT22;6055;52.522;13.446;2023-05-06T09:22:32;10.80;99.90
11991;DHT22;6055;52.522;13.446;2023-05-06T09:24:58;10.90;99.90
11991;DHT22;6055;52.522;13.446;2023-05-06T09:27:32;10.90;99.90
11991;DHT22;6055;52.522;13.446;2023-05-06T09:30:09;11.00;99.90
11991;DHT22;6055;52.522;13.446;2023-05-06T09:32:36;10.90;99.90
11991;DHT22;6055;52.522;13.446;2023-05-06T09:35:02;11.00;99.90
11991;DHT22;6055;52.522;13.446;2023-05-06T09:37:28;11.10;99.90
11991;DHT22;6055;52.522;13.446;2023-05-06T09:39:57;11.00;99.90
11991;DHT22;6055;52.522;13.446;2023-05-06T09:42:24;11.10;99.90
11991;DHT22;6055;52.522;13.446;2023-05-06T09:44:52;11.20;99.90
11991;DHT22;6055;52.522;13.446;2023-05-06T09:47:18;11.10;99.90
11991;DHT22;6055;52.522;13.446;2023-05-06T09:49:43;11.20;99.90
11991;DHT22;6055;52.522;13.446;2023-05-06T09:52:11;11.30;99.90
11991;DHT22;6055;52.522;13.446;2023-05-06T09:54:37;11.20;99.90
11991;DHT22;6055;52.522;13.446;2023-05-06T09:57:03;11.30;99.90
11991;DHT22;6055;52.522;13.446;2023-05-06T09:59:29;11.20;99.90
11991;DHT22;6055;52.522;13.446;2023-05-06T10:01:55;11.30;99.90
11991;DHT22;6055;52.522;13.446;2023-05-06T10:04:25;11.30;99.90
11991;DHT22;6055;52.522;13.446;2023-05-06T10:06:55;11.30;99.90
11991;DHT22;6055;52.522;13.446;2023-05-06T10:09:26;11.30;99.90
11991;DHT22;6055;52.522;13.446;2023-05-06T10:11:52;11.30;99.90
11991;DHT22;6055;52.522;13.446;2023-05-06T10:14:18;11.20;99.90
11991;DHT22;6055;52.522;13.446;2023-05-06T10:16:48;11.20;99.90
11991;DHT22;6055;52.522;13.446;2023-05-06T10:19:17;11.20;99.90
11991;DHT22;6055;52.522;13.446;2023-05-06T10:21:53;11.30;99.90
11991;DHT22;6055;52.522;13.446;2023-05-06T10:24:22;11.30;99.90
11991;DHT22;6055;52.522;13.446;2023-05-06T10:26:49;11.30;99.90
11991;DHT22;6055;52.522;13.446;2023-05-06T10:29:16;11.30;99.90
11991;DHT22;6055;52.522;13.446;2023-05-06T10:31:50;11.20;99.90
11991;DHT22;6055;52.522;13.446;2023-05-06T10:34:19;11.20;99.90
11991;DHT22;6055;52.522;13.446;2023-05-06T10:36:47;11.20;99.90
11991;DHT22;6055;52.522;13.446;2023-05-06T10:39:13;11.10;99.90
11991;DHT22;6055;52.522;13.446;2023-05-06T10:41:39;11.10;99.90
11991;DHT22;6055;52.522;13.446;2023-05-06T10:44:05;11.10;99.90
11991;DHT22;6055;52.522;13.446;2023-05-06T10:46:31;11.10;99.90
11991;DHT22;6055;52.522;13.446;2023-05-06T10:51:38;11.20;99.90
11991;DHT22;6055;52.522;13.446;2023-05-06T10:56:38;11.10;99.90
11991;DHT22;6055;52.522;13.446;2023-05-06T10:59:14;11.10;99.90
11991;DHT22;6055;52.522;13.446;2023-05-06T11:01:41;11.20;99.90
11991;DHT22;6055;52.522;13.446;2023-05-06T11:04:12;11.20;99.90
11991;DHT22;6055;52.522;13.446;2023-05-06T11:06:48;11.20;99.90
11991;DHT22;6055;52.522;13.446;2023-05-06T11:09:16;11.20;99.90
11991;DHT22;6055;52.522;13.446;2023-05-06T11:12:00;11.20;99.90
11991;DHT22;6055;52.522;13.446;2023-05-06T11:14:26;11.20;99.90
11991;DHT22;6055;52.522;13.446;2023-05-06T11:16:53;11.20;99.90
11991;DHT22;6055;52.522;13.446;2023-05-06T11:19:24;11.20;99.90
11991;DHT22;6055;52.522;13.446;2023-05-06T11:21:56;11.20;99.90
11991;DHT22;6055;52.522;13.446;2023-05-06T11:26:54;11.10;99.90
11991;DHT22;6055;52.522;13.446;2023-05-06T11:29:20;11.10;99.90
11991;DHT22;6055;52.522;13.446;2023-05-06T11:31:46;11.20;99.90
11991;DHT22;6055;52.522;13.446;2023-05-06T11:34:17;11.20;99.90
11991;DHT22;6055;52.522;13.446;2023-05-06T11:36:49;11.20;99.90
11991;DHT22;6055;52.522;13.446;2023-05-06T11:39:15;11.30;99.90
11991;DHT22;6055;52.522;13.446;2023-05-06T11:41:40;11.30;99.90
11991;DHT22;6055;52.522;13.446;2023-05-06T11:44:06;11.40;99.90
11991;DHT22;6055;52.522;13.446;2023-05-06T11:46:32;11.40;99.90
11991;DHT22;6055;52.522;13.446;2023-05-06T11:48:58;11.40;99.90
11991;DHT22;6055;52.522;13.446;2023-05-06T11:51:24;11.30;99.90
11991;DHT22;6055;52.522;13.446;2023-05-06T11:54:02;11.20;99.90
11991;DHT22;6055;52.522;13.446;2023-05-06T11:56:29;11.30;99.90
11991;DHT22;6055;52.522;13.446;2023-05-06T11:58:55;11.30;99.90
11991;DHT22;6055;52.522;13.446;2023-05-06T12:01:21;11.20;99.90
11991;DHT22;6055;52.522;13.446;2023-05-06T12:03:46;11.20;99.90
11991;DHT22;6055;52.522;13.446;2023-05-06T12:06:11;11.20;99.90
11991;DHT22;6055;52.522;13.446;2023-05-06T12:08:38;11.30;99.90
11991;DHT22;6055;52.522;13.446;2023-05-06T12:11:07;11.30;99.90
11991;DHT22;6055;52.522;13.446;2023-05-06T12:13:34;11.20;99.90
11991;DHT22;6055;52.522;13.446;2023-05-06T12:16:01;11.40;99.90
11991;DHT22;6055;52.522;13.446;2023-05-06T12:18:27;11.40;99.90
11991;DHT22;6055;52.522;13.446;2023-05-06T12:20:53;11.40;99.90
11991;DHT22;6055;52.522;13.446;2023-05-06T12:23:19;11.40;99.90
11991;DHT22;6055;52.522;13.446;2023-05-06T12:26:02;11.60;99.90
11991;DHT22;6055;52.522;13.446;2023-05-06T12:28:29;11.50;99.90
11991;DHT22;6055;52.522;13.446;2023-05-06T12:30:55;11.40;99.90
11991;DHT22;6055;52.522;13.446;2023-05-06T12:33:20;11.40;99.90
11991;DHT22;6055;52.522;13.446;2023-05-06T12:35:46;11.30;99.90
11991;DHT22;6055;52.522;13.446;2023-05-06T12:38:13;11.30;99.90
11991;DHT22;6055;52.522;13.446;2023-05-06T12:40:42;11.20;99.90
11991;DHT22;6055;52.522;13.446;2023-05-06T12:43:08;11.30;99.90
11991;DHT22;6055;52.522;13.446;2023-05-06T12:45:34;11.40;99.90
11991;DHT22;6055;52.522;13.446;2023-05-06T12:48:01;11.40;99.90
11991;DHT22;6055;52.522;13.446;2023-05-06T12:53:03;11.40;99.90
11991;DHT22;6055;52.522;13.446;2023-05-06T12:55:34;11.30;99.90
11991;DHT22;6055;52.522;13.446;2023-05-06T12:58:00;11.30;99.90
11991;DHT22;6055;52.522;13.446;2023-05-06T13:00:26;11.40;99.90
11991;DHT22;6055;52.522;13.446;2023-05-06T13:02:55;11.40;99.90
11991;DHT22;6055;52.522;13.446;2023-05-06T13:05:21;11.30;99.90
11991;DHT22;6055;52.522;13.446;2023-05-06T13:07:46;11.30;99.90
11991;DHT22;6055;52.522;13.446;2023-05-06T13:10:12;11.20;99.90
11991;DHT22;6055;52.522;13.446;2023-05-06T13:12:37;11.40;99.90
11991;DHT22;6055;52.522;13.446;2023-05-06T13:15:03;11.40;99.90
11991;DHT22;6055;52.522;13.446;2023-05-06T13:17:29;11.30;99.90
11991;DHT22;6055;52.522;13.446;2023-05-06T13:19:55;11.40;99.90
11991;DHT22;6055;52.522;13.446;2023-05-06T13:22:21;11.30;99.90
11991;DHT22;6055;52.522;13.446;2023-05-06T13:24:47;11.40;99.90
11991;DHT22;6055;52.522;13.446;2023-05-06T13:27:12;11.40;99.90
11991;DHT22;6055;52.522;13.446;2023-05-06T13:29:38;11.40;99.90
11991;DHT22;6055;52.522;13.446;2023-05-06T13:32:03;11.50;99.90
11991;DHT22;6055;52.522;13.446;2023-05-06T13:34:29;11.50;99.90
11991;DHT22;6055;52.522;13.446;2023-05-06T13:36:55;11.50;99.90
11991;DHT22;6055;52.522;13.446;2023-05-06T13:39:21;11.50;99.90
11991;DHT22;6055;52.522;13.446;2023-05-06T13:41:48;11.50;99.90
11991;DHT22;6055;52.522;13.446;2023-05-06T13:44:15;11.60;99.90
11991;DHT22;6055;52.522;13.446;2023-05-06T13:46:40;11.50;99.90
11991;DHT22;6055;52.522;13.446;2023-05-06T13:49:06;11.60;99.90
11991;DHT22;6055;52.522;13.446;2023-05-06T13:54:07;11.70;99.90
11991;DHT22;6055;52.522;13.446;2023-05-06T13:56:58;11.60;99.90
11991;DHT22;6055;52.522;13.446;2023-05-06T13:59:28;11.60;99.90
11991;DHT22;6055;52.522;13.446;2023-05-06T14:02:43;11.70;99.90
11991;DHT22;6055;52.522;13.446;2023-05-06T14:05:17;11.80;99.90
11991;DHT22;6055;52.522;13.446;2023-05-06T14:08:05;11.80;99.90
11991;DHT22;6055;52.522;13.446;2023-05-06T14:10:47;11.70;99.90
11991;DHT22;6055;52.522;13.446;2023-05-06T14:13:46;11.80;99.90
11991;DHT22;6055;52.522;13.446;2023-05-06T14:27:04;11.50;99.90
11991;DHT22;6055;52.522;13.446;2023-05-06T14:36:44;11.40;99.90
11991;DHT22;6055;52.522;13.446;2023-05-06T14:50:45;11.30;99.90
11991;DHT22;6055;52.522;13.446;2023-05-06T14:53:25;11.30;99.90
11991;DHT22;6055;52.522;13.446;2023-05-06T14:55:51;11.30;99.90
11991;DHT22;6055;52.522;13.446;2023-05-06T14:58:17;11.20;99.90
11991;DHT22;6055;52.522;13.446;2023-05-06T15:00:43;11.20;99.90
11991;DHT22;6055;52.522;13.446;2023-05-06T15:03:11;11.20;99.90
11991;DHT22;6055;52.522;13.446;2023-05-06T15:05:36;11.20;99.90
11991;DHT22;6055;52.522;13.446;2023-05-06T15:08:02;11.10;99.90
11991;DHT22;6055;52.522;13.446;2023-05-06T15:10:27;11.10;99.90
11991;DHT22;6055;52.522;13.446;2023-05-06T15:12:53;11.10;99.90
11991;DHT22;6055;52.522;13.446;2023-05-06T15:15:18;11.10;99.90
11991;DHT22;6055;52.522;13.446;2023-05-06T15:17:44;11.00;99.90
11991;DHT22;6055;52.522;13.446;2023-05-06T15:20:10;11.10;99.90
11991;DHT22;6055;52.522;13.446;2023-05-06T15:22:35;11.10;99.90
11991;DHT22;6055;52.522;13.446;2023-05-06T15:25:01;11.10;99.90
11991;DHT22;6055;52.522;13.446;2023-05-06T15:27:27;11.00;99.90
11991;DHT22;6055;52.522;13.446;2023-05-06T15:29:53;11.10;99.90
11991;DHT22;6055;52.522;13.446;2023-05-06T15:32:18;11.10;99.90
11991;DHT22;6055;52.522;13.446;2023-05-06T15:34:44;11.20;99.90
11991;DHT22;6055;52.522;13.446;2023-05-06T15:37:09;11.10;99.90
11991;DHT22;6055;52.522;13.446;2023-05-06T15:39:35;11.20;99.90
11991;DHT22;6055;52.522;13.446;2023-05-06T15:42:02;11.30;99.90
11991;DHT22;6055;52.522;13.446;2023-05-06T15:44:28;11.20;99.90
11991;DHT22;6055;52.522;13.446;2023-05-06T15:46:53;11.20;99.90
11991;DHT22;6055;52.522;13.446;2023-05-06T15:49:19;11.20;99.90
11991;DHT22;6055;52.522;13.446;2023-05-06T15:51:44;11.20;99.90
11991;DHT22;6055;52.522;13.446;2023-05-06T15:54:10;11.20;99.90
11991;DHT22;6055;52.522;13.446;2023-05-06T15:56:35;11.10;99.90
11991;DHT22;6055;52.522;13.446;2023-05-06T15:59:03;11.20;99.90
11991;DHT22;6055;52.522;13.446;2023-05-06T16:01:30;11.30;99.90
11991;DHT22;6055;52.522;13.446;2023-05-06T16:03:55;11.20;99.90
11991;DHT22;6055;52.522;13.446;2023-05-06T16:06:21;11.20;99.90
11991;DHT22;6055;52.522;13.446;2023-05-06T16:08:46;11.10;99.90
11991;DHT22;6055;52.522;13.446;2023-05-06T16:11:12;11.10;99.90
11991;DHT22;6055;52.522;13.446;2023-05-06T16:13:37;11.10;99.90
11991;DHT22;6055;52.522;13.446;2023-05-06T16:16:03;11.10;99.90